Tortugas, New Mexico
Current Conditions -  °F | °C
As of 5:15 PM on Thursday 18 Dec 2014 (Local Time) from KLRU Reporting Station
Heavy Rain Heavy Rain  
Wind Chill: 32°   Ceiling: 3100
Heat Index: 41°   Visibility: 7mi
Dew Point: 38°   Wind: 16mph
Humidity: 90%   Direction: 280°W
Pressure: 30.11"   Gusts: 23mph
Location:  32.6621°N, 106.641°W
Report Text: KLRU 190015Z AUTO 28014G20KT 7SM +RA SCT012 SCT020 OVC031 05/03 A3011 RMK AO2 P0002 T00480033
Loading
Personal Weather Stations






























Interactive Weather Map New forecast layout! Learn more

10-Day Weather Forecast

Advertisements
Track Severe Weather on mobile